createdAt,value
2023-05-04T00:00:34.549Z,17.43
2023-05-04T00:03:02.368Z,17.40
2023-05-04T00:05:29.984Z,17.36
2023-05-04T00:07:57.408Z,17.24
2023-05-04T00:10:24.845Z,17.21
2023-05-04T00:12:52.696Z,17.30
2023-05-04T00:15:20.521Z,17.35
2023-05-04T00:17:48.132Z,17.30
2023-05-04T00:20:15.723Z,17.24
2023-05-04T00:22:43.381Z,17.26
2023-05-04T00:25:10.982Z,17.25
2023-05-04T00:27:38.590Z,17.16
2023-05-04T00:30:06.833Z,17.17
2023-05-04T00:32:34.529Z,17.23
2023-05-04T00:35:02.065Z,17.09
2023-05-04T00:37:29.533Z,17.03
2023-05-04T00:39:57.007Z,17.11
2023-05-04T00:42:24.514Z,17.04
2023-05-04T00:44:51.965Z,17.08
2023-05-04T00:47:21.495Z,16.97
2023-05-04T00:49:49.164Z,17.01
2023-05-04T00:52:17.781Z,16.96
2023-05-04T00:54:46.731Z,16.86
2023-05-04T00:57:17.130Z,16.77
2023-05-04T00:59:44.674Z,16.73
2023-05-04T01:02:12.058Z,16.70
2023-05-04T01:04:39.770Z,16.70
2023-05-04T01:07:21.615Z,16.72
2023-05-04T01:10:01.972Z,16.64
2023-05-04T01:12:41.238Z,16.55
2023-05-04T01:15:13.033Z,16.61
2023-05-04T01:17:40.561Z,16.63
2023-05-04T01:20:09.965Z,16.53
2023-05-04T01:22:38.604Z,16.53
2023-05-04T01:25:07.889Z,16.51
2023-05-04T01:27:56.805Z,16.47
2023-05-04T01:30:33.313Z,16.48
2023-05-04T01:33:02.353Z,16.48
2023-05-04T01:35:30.529Z,16.49
2023-05-04T01:37:59.003Z,16.48
2023-05-04T01:40:26.435Z,16.37
2023-05-04T01:42:53.937Z,16.48
2023-05-04T01:45:21.719Z,16.45
2023-05-04T01:47:49.627Z,16.45
2023-05-04T01:50:17.220Z,16.44
2023-05-04T01:52:44.785Z,16.31
2023-05-04T01:55:12.339Z,16.32
2023-05-04T01:57:39.735Z,16.38
2023-05-04T02:00:08.185Z,16.38
2023-05-04T02:02:45.235Z,16.37
2023-05-04T02:05:17.602Z,16.27
2023-05-04T02:07:45.145Z,16.42
2023-05-04T02:10:12.663Z,16.42
2023-05-04T02:12:41.868Z,16.44
2023-05-04T02:15:09.763Z,16.35
2023-05-04T02:17:37.417Z,16.25
2023-05-04T02:20:05.714Z,16.28
2023-05-04T02:22:33.442Z,16.41
2023-05-04T02:25:01.107Z,16.33
2023-05-04T02:27:28.511Z,16.44
2023-05-04T02:29:58.457Z,16.40
2023-05-04T02:32:26.298Z,16.47
2023-05-04T02:34:53.926Z,16.41
2023-05-04T02:37:22.382Z,16.45
2023-05-04T02:39:49.875Z,16.44
2023-05-04T02:42:17.630Z,16.40
2023-05-04T02:44:45.113Z,16.43
2023-05-04T02:47:12.885Z,16.34
2023-05-04T02:49:40.354Z,16.33
2023-05-04T02:52:08.036Z,16.28
2023-05-04T02:54:35.836Z,16.24
2023-05-04T02:57:03.408Z,16.22
2023-05-04T02:59:30.918Z,16.19
2023-05-04T03:01:58.442Z,16.13
2023-05-04T03:04:25.944Z,16.17
2023-05-04T03:06:53.621Z,16.08
2023-05-04T03:09:21.136Z,16.09
2023-05-04T03:11:48.690Z,16.01
2023-05-04T03:14:16.435Z,15.96
2023-05-04T03:16:45.603Z,15.97
2023-05-04T03:19:13.215Z,16.01
2023-05-04T03:21:40.786Z,15.99
2023-05-04T03:24:08.287Z,15.95
2023-05-04T03:26:36.102Z,15.90
2023-05-04T03:29:03.580Z,15.86
2023-05-04T03:31:31.485Z,15.78
2023-05-04T03:33:59.443Z,15.80
2023-05-04T03:36:27.182Z,15.76
2023-05-04T03:38:54.794Z,15.78
2023-05-04T03:41:22.413Z,15.67
2023-05-04T03:43:49.793Z,15.67
2023-05-04T03:46:17.327Z,15.68
2023-05-04T03:48:46.516Z,15.69
2023-05-04T03:51:16.980Z,15.64
2023-05-04T03:53:45.031Z,15.61
2023-05-04T03:56:15.091Z,15.65
2023-05-04T03:58:42.665Z,15.63
2023-05-04T04:01:10.234Z,15.67
2023-05-04T04:03:39.308Z,15.63
2023-05-04T04:06:09.812Z,15.59
2023-05-04T04:08:38.140Z,15.66
2023-05-04T04:11:05.691Z,15.63
2023-05-04T04:13:33.152Z,15.67
2023-05-04T04:16:00.664Z,15.55
2023-05-04T04:18:28.281Z,15.51
2023-05-04T04:20:55.736Z,15.56
2023-05-04T04:23:24.333Z,15.52
2023-05-04T04:25:53.936Z,15.49
2023-05-04T04:28:21.647Z,15.37
2023-05-04T04:30:49.395Z,15.39
2023-05-04T04:33:17.150Z,15.52
2023-05-04T04:35:44.590Z,15.54
2023-05-04T04:38:12.041Z,15.44
2023-05-04T04:40:39.530Z,15.36
2023-05-04T04:43:07.127Z,15.31
2023-05-04T04:45:35.836Z,15.40
2023-05-04T04:48:04.074Z,15.42
2023-05-04T04:50:32.331Z,15.37
2023-05-04T04:53:00.169Z,15.41
2023-05-04T04:55:27.616Z,15.22
2023-05-04T04:57:55.767Z,15.24
2023-05-04T05:00:24.258Z,15.23
2023-05-04T05:02:51.866Z,15.25
2023-05-04T05:05:19.322Z,15.36
2023-05-04T05:07:47.003Z,15.41
2023-05-04T05:10:14.609Z,15.63
2023-05-04T05:12:42.160Z,15.60
2023-05-04T05:15:10.113Z,15.59
2023-05-04T05:17:37.922Z,15.51
2023-05-04T05:20:13.497Z,15.51
2023-05-04T05:22:41.460Z,15.59
2023-05-04T05:25:09.181Z,15.68
2023-05-04T05:27:36.924Z,15.52
2023-05-04T05:30:06.437Z,15.50
2023-05-04T05:32:34.274Z,15.44
2023-05-04T05:35:01.923Z,15.32
2023-05-04T05:37:29.612Z,15.29
2023-05-04T05:39:57.120Z,15.23
2023-05-04T05:42:24.642Z,15.04
2023-05-04T05:44:52.311Z,15.14
2023-05-04T05:47:19.917Z,15.24
2023-05-04T05:49:47.495Z,15.18
2023-05-04T05:52:15.027Z,15.17
2023-05-04T05:54:42.513Z,15.07
2023-05-04T05:57:10.282Z,14.92
2023-05-04T05:59:37.759Z,14.81
2023-05-04T06:02:06.096Z,14.73
2023-05-04T06:04:33.595Z,14.69
2023-05-04T06:07:01.162Z,14.59
2023-05-04T06:09:28.619Z,14.66
2023-05-04T06:11:56.184Z,14.55
2023-05-04T06:14:23.755Z,14.51
2023-05-04T06:16:51.307Z,14.42
2023-05-04T06:19:18.782Z,14.40
2023-05-04T06:21:49.080Z,14.27
2023-05-04T06:24:16.646Z,14.36
2023-05-04T06:26:44.118Z,14.35
2023-05-04T06:29:12.061Z,14.38
2023-05-04T06:31:39.551Z,14.24
2023-05-04T06:34:10.467Z,14.17
2023-05-04T06:36:48.690Z,14.16
2023-05-04T06:39:16.233Z,14.12
2023-05-04T06:41:43.651Z,14.43
2023-05-04T06:44:11.175Z,14.47
2023-05-04T06:46:38.700Z,14.41
2023-05-04T06:49:06.382Z,14.31
2023-05-04T06:51:37.637Z,14.21
2023-05-04T06:54:05.630Z,14.24
2023-05-04T06:56:33.182Z,14.16
2023-05-04T06:59:00.923Z,14.13
2023-05-04T07:01:28.533Z,14.21
2023-05-04T07:03:58.448Z,14.21
2023-05-04T07:06:27.324Z,14.21
2023-05-04T07:08:54.858Z,14.25
2023-05-04T07:11:22.276Z,14.19
2023-05-04T07:13:50.059Z,14.41
2023-05-04T07:16:17.578Z,14.43
2023-05-04T07:18:45.204Z,14.40
2023-05-04T07:21:26.734Z,14.37
2023-05-04T07:23:55.589Z,14.40
2023-05-04T07:26:23.496Z,14.44
2023-05-04T07:28:51.429Z,14.44
2023-05-04T07:31:18.946Z,14.50
2023-05-04T07:33:46.537Z,14.58
2023-05-04T07:36:14.000Z,14.75
2023-05-04T07:38:41.736Z,14.76
2023-05-04T07:41:09.329Z,14.81
2023-05-04T07:43:36.820Z,14.84
2023-05-04T07:46:04.385Z,14.84
2023-05-04T07:48:34.668Z,14.88
2023-05-04T07:51:02.116Z,14.71
2023-05-04T07:53:29.684Z,14.70
2023-05-04T07:56:01.075Z,14.76
2023-05-04T07:58:28.929Z,14.95
2023-05-04T08:00:56.411Z,15.00
2023-05-04T08:03:24.006Z,15.00
2023-05-04T08:05:52.246Z,15.15
2023-05-04T08:08:20.517Z,15.19
2023-05-04T08:10:49.227Z,15.29
2023-05-04T08:13:17.094Z,15.42
2023-05-04T08:15:45.151Z,15.52
2023-05-04T08:18:12.964Z,15.56
2023-05-04T08:20:40.810Z,15.73
2023-05-04T08:23:08.554Z,15.85
2023-05-04T08:25:36.152Z,16.10
2023-05-04T08:28:03.904Z,16.43
2023-05-04T08:30:32.093Z,16.88
2023-05-04T08:33:00.472Z,17.46
2023-05-04T08:35:28.901Z,18.22
2023-05-04T08:37:56.508Z,19.05
2023-05-04T08:40:24.359Z,19.99
2023-05-04T08:42:52.568Z,20.66
2023-05-04T08:45:20.024Z,21.51
2023-05-04T08:47:47.765Z,22.36
2023-05-04T08:50:15.433Z,22.89
2023-05-04T08:52:47.891Z,23.23
2023-05-04T08:55:17.307Z,23.88
2023-05-04T08:57:45.483Z,24.16
2023-05-04T09:00:16.963Z,24.13
2023-05-04T09:02:45.920Z,24.32
2023-05-04T09:05:13.665Z,24.37
2023-05-04T09:07:41.179Z,24.05
2023-05-04T09:10:09.319Z,23.52
2023-05-04T09:12:38.178Z,23.48
2023-05-04T09:15:16.826Z,22.95
2023-05-04T09:18:04.019Z,22.53
2023-05-04T09:20:42.717Z,21.83
2023-05-04T09:23:11.925Z,21.79
2023-05-04T09:25:53.616Z,21.68
2023-05-04T09:28:33.743Z,21.54
2023-05-04T09:31:02.789Z,21.63
2023-05-04T09:33:30.760Z,21.90
2023-05-04T09:36:13.427Z,22.25
2023-05-04T09:38:41.470Z,22.34
2023-05-04T09:41:09.451Z,22.82
2023-05-04T09:43:41.796Z,23.16
2023-05-04T09:46:19.404Z,23.23
2023-05-04T09:48:55.730Z,23.08
2023-05-04T09:51:25.670Z,22.97
2023-05-04T09:53:54.037Z,22.90
2023-05-04T09:56:41.443Z,22.47
2023-05-04T09:59:10.793Z,22.32
2023-05-04T10:01:38.628Z,22.36
2023-05-04T10:04:07.233Z,22.62
2023-05-04T10:06:35.053Z,22.47
2023-05-04T10:09:02.610Z,22.28
2023-05-04T10:11:30.938Z,22.52
2023-05-04T10:13:58.613Z,22.49
2023-05-04T10:16:43.359Z,22.36
2023-05-04T10:19:32.291Z,22.08
2023-05-04T10:22:56.663Z,21.95
2023-05-04T10:25:35.331Z,21.61
2023-05-04T10:28:20.953Z,21.06
2023-05-04T10:30:48.557Z,20.73
2023-05-04T10:33:16.493Z,20.58
2023-05-04T10:35:54.108Z,20.51
2023-05-04T10:38:42.397Z,20.42
2023-05-04T10:41:19.882Z,20.67
2023-05-04T10:43:53.550Z,21.07
2023-05-04T10:46:22.868Z,21.52
2023-05-04T10:48:51.140Z,21.92
2023-05-04T10:51:25.299Z,21.97
2023-05-04T10:53:55.827Z,21.71
2023-05-04T10:56:25.340Z,21.44
2023-05-04T10:58:53.934Z,21.19
2023-05-04T11:01:22.366Z,21.19
2023-05-04T11:03:51.612Z,21.32
2023-05-04T11:06:24.008Z,21.26
2023-05-04T11:09:03.292Z,21.13
2023-05-04T11:11:36.787Z,21.22
2023-05-04T11:14:04.426Z,21.14
2023-05-04T11:16:31.919Z,20.99
2023-05-04T11:19:12.644Z,21.01
2023-05-04T11:21:40.876Z,20.92
2023-05-04T11:24:09.072Z,20.70
2023-05-04T11:26:48.790Z,20.77
2023-05-04T11:29:16.905Z,21.07
2023-05-04T11:31:54.842Z,21.44
2023-05-04T11:34:22.548Z,21.54
2023-05-04T11:36:50.201Z,21.47
2023-05-04T11:39:17.745Z,21.14
2023-05-04T11:41:45.141Z,20.92
2023-05-04T11:44:13.352Z,20.88
2023-05-04T11:46:41.140Z,20.87
2023-05-04T11:49:08.959Z,20.73
2023-05-04T11:51:36.440Z,20.82
2023-05-04T11:54:04.328Z,21.34
2023-05-04T11:56:41.495Z,21.56
2023-05-04T11:59:10.937Z,21.62
2023-05-04T12:01:38.683Z,21.58
2023-05-04T12:04:06.560Z,21.50
2023-05-04T12:06:34.209Z,21.07
2023-05-04T12:09:03.517Z,20.99
2023-05-04T12:11:30.935Z,21.22
2023-05-04T12:14:14.138Z,21.22
2023-05-04T12:16:43.324Z,21.31
2023-05-04T12:19:13.253Z,21.54
2023-05-04T12:21:52.517Z,21.54
2023-05-04T12:24:24.097Z,21.47
2023-05-04T12:26:51.683Z,21.42
2023-05-04T12:29:19.230Z,21.33
2023-05-04T12:31:47.686Z,21.17
2023-05-04T12:34:15.232Z,21.31
2023-05-04T12:36:44.634Z,21.36
2023-05-04T12:39:12.011Z,21.45
2023-05-04T12:41:40.290Z,21.18
2023-05-04T12:44:09.292Z,21.13
2023-05-04T12:46:37.547Z,21.15
2023-05-04T12:49:05.057Z,21.19
2023-05-04T12:51:32.542Z,21.04
2023-05-04T12:54:00.130Z,21.03
2023-05-04T12:56:27.708Z,21.10
2023-05-04T12:58:55.329Z,20.90
2023-05-04T13:01:23.134Z,21.03
2023-05-04T13:03:50.740Z,20.95
2023-05-04T13:06:18.279Z,21.03
2023-05-04T13:08:47.289Z,20.96
2023-05-04T13:11:19.301Z,20.93
2023-05-04T13:13:47.069Z,20.90
2023-05-04T13:16:14.683Z,21.12
2023-05-04T13:18:42.643Z,21.16
2023-05-04T13:21:10.114Z,21.22
2023-05-04T13:23:37.867Z,21.19
2023-05-04T13:26:06.504Z,21.12
2023-05-04T13:28:33.905Z,21.27
2023-05-04T13:31:01.783Z,21.33
2023-05-04T13:33:30.724Z,21.44
2023-05-04T13:35:59.176Z,21.28
2023-05-04T13:38:27.443Z,21.23
2023-05-04T13:40:56.074Z,21.01
2023-05-04T13:43:23.886Z,20.71
2023-05-04T13:45:51.428Z,20.57
2023-05-04T13:48:19.234Z,20.72
2023-05-04T13:50:46.974Z,20.86
2023-05-04T13:53:14.505Z,21.00
2023-05-04T13:55:42.006Z,21.04
2023-05-04T13:58:09.947Z,21.07
2023-05-04T14:00:38.208Z,21.02
2023-05-04T14:03:05.741Z,20.94
2023-05-04T14:05:35.512Z,20.74
2023-05-04T14:08:03.359Z,20.91
2023-05-04T14:10:30.904Z,20.94
2023-05-04T14:12:58.464Z,20.77
2023-05-04T14:15:27.557Z,20.82
2023-05-04T14:17:55.255Z,20.84
2023-05-04T14:20:22.955Z,20.84
2023-05-04T14:22:50.419Z,20.98
2023-05-04T14:25:17.958Z,20.83
2023-05-04T14:27:45.496Z,20.86
2023-05-04T14:30:13.268Z,20.89
2023-05-04T14:32:41.668Z,20.90
2023-05-04T14:35:10.977Z,20.89
2023-05-04T14:37:40.157Z,20.70
2023-05-04T14:40:09.576Z,20.49
2023-05-04T14:42:37.510Z,20.54
2023-05-04T14:45:06.976Z,20.64
2023-05-04T14:47:35.340Z,20.72
2023-05-04T14:50:03.020Z,20.78
2023-05-04T14:52:30.834Z,20.91
2023-05-04T14:54:58.339Z,20.90
2023-05-04T14:57:25.796Z,20.65
2023-05-04T14:59:53.220Z,20.58
2023-05-04T15:02:21.046Z,20.51
2023-05-04T15:04:48.926Z,20.49
2023-05-04T15:07:18.743Z,20.41
2023-05-04T15:09:46.728Z,20.35
2023-05-04T15:12:14.262Z,20.43
2023-05-04T15:14:41.644Z,20.32
2023-05-04T15:17:09.565Z,20.15
2023-05-04T15:19:38.619Z,20.04
2023-05-04T15:22:06.836Z,20.12
2023-05-04T15:24:34.328Z,20.08
2023-05-04T15:27:02.205Z,19.93
2023-05-04T15:29:29.890Z,19.89
2023-05-04T15:31:57.376Z,20.06
2023-05-04T15:34:24.812Z,20.04
2023-05-04T15:36:52.682Z,20.10
2023-05-04T15:39:20.180Z,19.97
2023-05-04T15:41:47.902Z,20.01
2023-05-04T15:44:15.364Z,20.06
2023-05-04T15:46:43.271Z,20.09
2023-05-04T15:49:11.008Z,20.17
2023-05-04T15:51:38.569Z,20.25
2023-05-04T15:54:06.144Z,20.19
2023-05-04T15:56:33.661Z,20.16
2023-05-04T15:59:01.272Z,20.11
2023-05-04T16:01:28.887Z,20.09
2023-05-04T16:03:59.548Z,20.09
2023-05-04T16:06:27.886Z,19.85
2023-05-04T16:08:55.601Z,19.73
2023-05-04T16:11:23.141Z,19.72
2023-05-04T16:13:56.092Z,19.74
2023-05-04T16:16:25.122Z,19.81
2023-05-04T16:18:53.757Z,19.81
2023-05-04T16:21:21.386Z,19.88
2023-05-04T16:23:48.818Z,19.93
2023-05-04T16:26:16.727Z,19.94
2023-05-04T16:28:45.487Z,19.82
2023-05-04T16:31:13.256Z,19.71
2023-05-04T16:33:47.170Z,19.42
2023-05-04T16:36:15.295Z,19.28
2023-05-04T16:38:42.735Z,19.15
2023-05-04T16:41:10.217Z,19.11
2023-05-04T16:43:37.649Z,18.95
2023-05-04T16:46:05.246Z,18.87
2023-05-04T16:48:32.959Z,18.82
2023-05-04T16:51:00.514Z,18.85
2023-05-04T16:53:27.887Z,18.88
2023-05-04T16:55:55.427Z,18.90
2023-05-04T16:58:23.106Z,18.90
2023-05-04T17:00:51.099Z,18.93
2023-05-04T17:03:18.640Z,18.97
2023-05-04T17:05:46.218Z,18.88
2023-05-04T17:08:13.744Z,18.90
2023-05-04T17:10:41.284Z,18.74
2023-05-04T17:13:09.013Z,18.82
2023-05-04T17:15:36.669Z,18.81
2023-05-04T17:18:08.268Z,18.90
2023-05-04T17:20:35.905Z,18.94
2023-05-04T17:23:03.595Z,18.93
2023-05-04T17:25:31.325Z,18.88
2023-05-04T17:27:58.733Z,18.96
2023-05-04T17:30:26.472Z,19.02
2023-05-04T17:32:55.757Z,19.03
2023-05-04T17:35:26.256Z,18.96
2023-05-04T17:37:58.582Z,18.92
2023-05-04T17:40:28.004Z,18.91
2023-05-04T17:42:57.065Z,18.86
2023-05-04T17:45:24.829Z,18.73
2023-05-04T17:47:52.671Z,18.72
2023-05-04T17:50:21.228Z,18.64
2023-05-04T17:52:55.704Z,18.65
2023-05-04T17:55:27.739Z,18.55
2023-05-04T17:57:55.389Z,18.48
2023-05-04T18:00:23.020Z,18.42
2023-05-04T18:02:50.710Z,18.40
2023-05-04T18:05:18.272Z,18.33
2023-05-04T18:07:45.841Z,18.19
2023-05-04T18:10:13.256Z,18.14
2023-05-04T18:12:40.847Z,18.10
2023-05-04T18:15:09.250Z,18.04
2023-05-04T18:17:39.846Z,17.91
2023-05-04T18:20:09.161Z,17.79
2023-05-04T18:22:37.211Z,17.79
2023-05-04T18:25:05.116Z,17.82
2023-05-04T18:27:33.786Z,17.78
2023-05-04T18:30:02.339Z,17.70
2023-05-04T18:32:29.938Z,17.66
2023-05-04T18:35:01.405Z,17.65
2023-05-04T18:37:32.152Z,17.60
2023-05-04T18:39:59.844Z,17.51
2023-05-04T18:42:27.507Z,17.42
2023-05-04T18:44:55.099Z,17.41
2023-05-04T18:47:22.484Z,17.35
2023-05-04T18:49:54.717Z,17.29
2023-05-04T18:52:22.506Z,17.14
2023-05-04T18:54:50.077Z,17.20
2023-05-04T18:57:17.913Z,17.15
2023-05-04T18:59:45.545Z,17.08
2023-05-04T19:02:13.196Z,17.13
2023-05-04T19:04:40.801Z,17.22
2023-05-04T19:07:10.018Z,17.24
2023-05-04T19:09:37.873Z,17.08
2023-05-04T19:12:05.696Z,17.02
2023-05-04T19:14:33.435Z,16.89
2023-05-04T19:17:01.487Z,16.97
2023-05-04T19:19:28.991Z,16.87
2023-05-04T19:21:56.600Z,16.76
2023-05-04T19:24:24.281Z,16.66
2023-05-04T19:26:51.849Z,16.57
2023-05-04T19:29:19.525Z,16.60
2023-05-04T19:31:47.376Z,16.61
2023-05-04T19:34:17.471Z,16.56
2023-05-04T19:36:45.490Z,16.49
2023-05-04T19:39:13.409Z,16.54
2023-05-04T19:41:41.033Z,16.30
2023-05-04T19:44:10.236Z,16.40
2023-05-04T19:46:38.047Z,16.17
2023-05-04T19:49:05.664Z,16.07
2023-05-04T19:51:33.263Z,16.19
2023-05-04T19:54:00.807Z,16.18
2023-05-04T19:56:28.412Z,16.11
2023-05-04T19:58:55.887Z,16.10
2023-05-04T20:01:23.334Z,16.04
2023-05-04T20:03:50.770Z,16.04
2023-05-04T20:06:18.319Z,15.90
2023-05-04T20:08:46.011Z,15.85
2023-05-04T20:11:14.068Z,15.88
2023-05-04T20:13:42.690Z,15.81
2023-05-04T20:16:10.250Z,15.75
2023-05-04T20:18:37.720Z,15.76
2023-05-04T20:21:05.561Z,15.78
2023-05-04T20:23:33.551Z,15.54
2023-05-04T20:26:02.552Z,15.69
2023-05-04T20:28:32.584Z,15.60
2023-05-04T20:31:00.244Z,15.58
2023-05-04T20:33:27.681Z,15.53
2023-05-04T20:35:55.461Z,15.45
2023-05-04T20:38:23.026Z,15.49
2023-05-04T20:40:52.439Z,15.53
2023-05-04T20:43:20.184Z,15.35
2023-05-04T20:45:47.811Z,15.47
2023-05-04T20:48:15.323Z,15.32
2023-05-04T20:50:42.962Z,15.18
2023-05-04T20:53:10.382Z,15.16
2023-05-04T20:55:43.519Z,15.21
2023-05-04T20:58:11.662Z,15.21
2023-05-04T21:00:40.214Z,15.41
2023-05-04T21:03:07.852Z,15.24
2023-05-04T21:05:38.770Z,15.16
2023-05-04T21:08:06.523Z,15.02
2023-05-04T21:10:33.953Z,14.94
2023-05-04T21:13:01.492Z,14.85
2023-05-04T21:15:28.940Z,14.88
2023-05-04T21:17:56.507Z,14.81
2023-05-04T21:20:23.976Z,14.84
2023-05-04T21:22:51.534Z,14.86
2023-05-04T21:25:18.976Z,14.96
2023-05-04T21:27:46.455Z,14.96
2023-05-04T21:30:13.943Z,14.95
2023-05-04T21:32:41.701Z,14.87
2023-05-04T21:35:09.530Z,14.81
2023-05-04T21:37:37.346Z,14.67
2023-05-04T21:40:05.526Z,14.66
2023-05-04T21:42:33.168Z,14.68
2023-05-04T21:45:00.683Z,14.86
2023-05-04T21:47:28.471Z,14.76
2023-05-04T21:49:55.982Z,14.71
2023-05-04T21:52:24.357Z,14.73
2023-05-04T21:54:51.870Z,14.65
2023-05-04T21:57:19.549Z,14.76
2023-05-04T21:59:50.326Z,14.66
2023-05-04T22:02:17.993Z,14.59
2023-05-04T22:04:45.717Z,14.55
2023-05-04T22:07:13.292Z,14.55
2023-05-04T22:09:40.721Z,14.41
2023-05-04T22:12:08.377Z,14.40
2023-05-04T22:14:35.803Z,14.39
2023-05-04T22:17:03.669Z,14.53
2023-05-04T22:19:31.179Z,14.54
2023-05-04T22:21:58.864Z,14.59
2023-05-04T22:24:26.876Z,14.54
2023-05-04T22:26:54.618Z,14.40
2023-05-04T22:29:22.391Z,14.46
2023-05-04T22:31:49.923Z,14.47
2023-05-04T22:34:17.317Z,14.61
2023-05-04T22:36:44.838Z,14.73
2023-05-04T22:39:12.342Z,14.71
2023-05-04T22:41:39.823Z,14.74
2023-05-04T22:44:07.483Z,14.59
2023-05-04T22:46:35.216Z,14.81
2023-05-04T22:49:02.856Z,14.80
2023-05-04T22:51:30.530Z,14.80
2023-05-04T22:53:57.939Z,14.79
2023-05-04T22:56:26.020Z,14.77
2023-05-04T22:58:53.564Z,14.79
2023-05-04T23:01:21.404Z,14.84
2023-05-04T23:03:49.101Z,14.88
2023-05-04T23:06:16.710Z,14.93
2023-05-04T23:08:45.487Z,14.84
2023-05-04T23:11:14.426Z,14.84
2023-05-04T23:13:41.901Z,14.93
2023-05-04T23:16:09.451Z,14.89
2023-05-04T23:18:37.071Z,14.77
2023-05-04T23:21:04.792Z,14.76
2023-05-04T23:23:32.158Z,14.89
2023-05-04T23:25:59.598Z,15.03
2023-05-04T23:28:27.136Z,14.85
2023-05-04T23:30:55.890Z,14.77
2023-05-04T23:33:23.412Z,14.76
2023-05-04T23:35:54.889Z,14.73
2023-05-04T23:38:23.053Z,14.85
2023-05-04T23:40:51.835Z,14.94
2023-05-04T23:43:19.784Z,15.01
2023-05-04T23:45:47.232Z,15.00
2023-05-04T23:48:14.781Z,14.86
2023-05-04T23:50:52.789Z,14.94
2023-05-04T23:53:20.744Z,14.84
2023-05-04T23:56:02.661Z,14.95
2023-05-04T23:58:31.502Z,14.81
